createdAt,value
2018-07-12T00:01:30.146Z,96.00
2018-07-12T00:06:25.331Z,96.00
2018-07-12T00:08:52.770Z,95.90
2018-07-12T00:11:20.229Z,95.70
2018-07-12T00:13:47.656Z,95.90
2018-07-12T00:16:15.092Z,95.90
2018-07-12T00:18:42.562Z,95.70
2018-07-12T00:21:09.982Z,95.80
2018-07-12T00:23:37.439Z,95.90
2018-07-12T00:26:04.866Z,95.90
2018-07-12T00:28:32.326Z,96.10
2018-07-12T00:30:59.751Z,96.30
2018-07-12T00:33:27.213Z,96.10
2018-07-12T00:35:54.639Z,96.00
2018-07-12T00:38:22.119Z,95.90
2018-07-12T00:40:49.556Z,95.60
2018-07-12T00:43:17.068Z,95.70
2018-07-12T00:45:44.504Z,95.60
2018-07-12T00:48:11.976Z,96.30
2018-07-12T00:50:39.681Z,96.10
2018-07-12T00:53:07.159Z,96.30
2018-07-12T00:55:34.593Z,96.40
2018-07-12T00:58:02.100Z,96.50
2018-07-12T01:00:29.556Z,96.40
2018-07-12T01:02:56.990Z,96.30
2018-07-12T01:07:52.153Z,96.10
2018-07-12T01:10:19.611Z,96.20
2018-07-12T01:12:47.036Z,96.10
2018-07-12T01:15:14.503Z,96.10
2018-07-12T01:17:41.932Z,96.00
2018-07-12T01:20:09.404Z,96.10
2018-07-12T01:22:36.849Z,96.10
2018-07-12T01:25:04.325Z,96.20
2018-07-12T01:27:31.738Z,96.00
2018-07-12T01:29:59.173Z,96.00
2018-07-12T01:32:26.647Z,96.00
2018-07-12T01:34:54.086Z,96.00
2018-07-12T01:37:21.562Z,95.80
2018-07-12T01:39:48.986Z,96.00
2018-07-12T01:42:16.697Z,95.90
2018-07-12T01:44:44.146Z,96.00
2018-07-12T01:47:11.608Z,95.70
2018-07-12T01:49:39.042Z,95.90
2018-07-12T01:52:06.513Z,96.00
2018-07-12T01:54:33.948Z,96.00
2018-07-12T01:57:01.374Z,96.10
2018-07-12T01:59:28.853Z,95.70
2018-07-12T02:01:56.307Z,95.70
2018-07-12T02:04:23.788Z,95.90
2018-07-12T02:06:51.216Z,95.70
2018-07-12T02:09:18.648Z,95.70
2018-07-12T02:11:46.109Z,95.80
2018-07-12T02:14:13.575Z,96.00
2018-07-12T02:16:41.012Z,96.40
2018-07-12T02:19:08.483Z,96.00
2018-07-12T02:21:35.906Z,96.10
2018-07-12T02:24:03.370Z,96.10
2018-07-12T02:26:30.831Z,96.30
2018-07-12T02:28:58.251Z,96.10
2018-07-12T02:31:25.747Z,96.00
2018-07-12T02:33:53.244Z,96.00
2018-07-12T02:36:20.681Z,96.00
2018-07-12T02:38:48.150Z,96.00
2018-07-12T02:41:15.650Z,96.10
2018-07-12T02:43:43.078Z,96.20
2018-07-12T02:46:10.533Z,96.60
2018-07-12T02:48:37.959Z,96.20
2018-07-12T02:51:05.431Z,96.20
2018-07-12T02:53:32.904Z,96.20
2018-07-12T02:56:00.349Z,96.30
2018-07-12T02:58:27.821Z,96.30
2018-07-12T03:00:55.249Z,96.30
2018-07-12T03:08:18.138Z,96.70
2018-07-12T03:10:45.575Z,96.70
2018-07-12T03:13:13.064Z,96.50
2018-07-12T03:15:40.518Z,96.60
2018-07-12T03:18:07.992Z,96.60
2018-07-12T03:20:35.458Z,96.50
2018-07-12T03:23:02.878Z,96.60
2018-07-12T03:25:30.339Z,96.70
2018-07-12T03:27:57.760Z,96.70
2018-07-12T03:30:25.220Z,96.80
2018-07-12T03:32:52.754Z,96.80
2018-07-12T03:35:20.261Z,96.70
2018-07-12T03:37:47.792Z,96.70
2018-07-12T03:40:15.215Z,96.70
2018-07-12T03:42:42.695Z,96.80
2018-07-12T03:45:10.184Z,97.00
2018-07-12T03:47:37.616Z,96.90
2018-07-12T03:50:05.071Z,96.60
2018-07-12T03:52:32.499Z,96.90
2018-07-12T03:54:59.949Z,96.80
2018-07-12T03:57:27.596Z,96.70
2018-07-12T03:59:55.070Z,96.70
2018-07-12T04:02:22.511Z,96.70
2018-07-12T04:04:50.077Z,96.50
2018-07-12T04:07:17.561Z,96.40
2018-07-12T04:09:45.007Z,96.40
2018-07-12T04:12:12.468Z,96.30
2018-07-12T04:14:39.959Z,96.40
2018-07-12T04:17:07.406Z,96.30
2018-07-12T04:19:34.890Z,96.40
2018-07-12T04:22:02.327Z,96.30
2018-07-12T04:24:29.756Z,96.30
2018-07-12T04:26:57.216Z,96.50
2018-07-12T04:29:24.639Z,96.50
2018-07-12T04:31:52.119Z,96.60
2018-07-12T04:34:19.547Z,96.50
2018-07-12T04:36:46.966Z,96.30
2018-07-12T04:39:14.438Z,96.30
2018-07-12T04:41:41.900Z,96.20
2018-07-12T04:44:09.328Z,96.30
2018-07-12T04:46:36.744Z,96.20
2018-07-12T04:49:04.228Z,96.10
2018-07-12T04:51:31.691Z,96.00
2018-07-12T04:53:59.124Z,95.90
2018-07-12T04:56:26.606Z,96.10
2018-07-12T04:58:54.050Z,96.00
2018-07-12T05:01:21.472Z,96.30
2018-07-12T05:03:48.944Z,96.40
2018-07-12T05:06:16.375Z,96.50
2018-07-12T05:08:43.849Z,96.50
2018-07-12T05:11:11.300Z,96.40
2018-07-12T05:13:38.772Z,96.40
2018-07-12T05:16:06.237Z,96.20
2018-07-12T05:18:33.709Z,96.40
2018-07-12T05:21:01.217Z,96.30
2018-07-12T05:23:28.652Z,96.10
2018-07-12T05:25:56.121Z,96.00
2018-07-12T05:28:23.570Z,95.50
2018-07-12T05:30:51.043Z,94.40
2018-07-12T05:33:18.493Z,93.40
2018-07-12T05:35:47.190Z,91.70
2018-07-12T05:38:15.885Z,89.30
2018-07-12T05:40:44.613Z,87.70
2018-07-12T05:43:13.284Z,85.70
2018-07-12T05:45:42.001Z,84.80
2018-07-12T05:48:10.800Z,83.30
2018-07-12T05:50:43.656Z,82.10
2018-07-12T05:53:12.365Z,80.90
2018-07-12T05:55:41.077Z,78.50
2018-07-12T05:58:09.823Z,79.20
2018-07-12T06:00:38.518Z,79.50
2018-07-12T06:03:07.251Z,80.00
2018-07-12T06:05:35.911Z,80.40
2018-07-12T06:08:04.680Z,79.80
2018-07-12T06:10:33.335Z,77.00
2018-07-12T06:13:02.035Z,73.00
2018-07-12T06:17:59.034Z,75.00
2018-07-12T06:20:27.749Z,74.70
2018-07-12T06:22:56.436Z,74.80
2018-07-12T06:25:25.089Z,76.00
2018-07-12T06:27:53.900Z,74.30
2018-07-12T06:30:22.541Z,72.90
2018-07-12T06:35:19.582Z,73.30
2018-07-12T06:37:48.222Z,74.70
2018-07-12T06:40:16.905Z,75.60
2018-07-12T06:42:45.625Z,77.40
2018-07-12T06:45:14.259Z,77.90
2018-07-12T06:47:43.022Z,78.40
2018-07-12T06:50:11.660Z,78.60
2018-07-12T06:52:40.352Z,79.50
2018-07-12T06:55:09.021Z,79.70
2018-07-12T06:57:37.693Z,78.10
2018-07-12T07:00:06.311Z,76.90
2018-07-12T07:02:35.009Z,76.60
2018-07-12T07:05:03.710Z,72.60
2018-07-12T07:07:32.380Z,71.50
2018-07-12T07:10:01.057Z,72.20
2018-07-12T07:12:29.711Z,72.80
2018-07-12T07:14:58.352Z,72.80
2018-07-12T07:17:27.045Z,70.70
2018-07-12T07:19:55.828Z,67.90
2018-07-12T07:22:24.502Z,65.10
2018-07-12T07:24:53.215Z,61.30
2018-07-12T07:27:21.904Z,60.70
2018-07-12T07:29:50.591Z,60.80
2018-07-12T07:34:47.864Z,58.70
2018-07-12T07:37:17.002Z,59.60
2018-07-12T07:39:45.676Z,59.90
2018-07-12T07:42:14.360Z,59.80
2018-07-12T07:44:43.048Z,59.10
2018-07-12T07:47:11.889Z,56.90
2018-07-12T07:49:41.110Z,56.30
2018-07-12T07:52:09.928Z,55.30
2018-07-12T07:54:38.681Z,55.00
2018-07-12T07:57:08.130Z,55.10
2018-07-12T07:59:36.969Z,53.40
2018-07-12T08:02:05.692Z,52.30
2018-07-12T08:04:34.407Z,53.70
2018-07-12T08:07:03.157Z,53.80
2018-07-12T08:09:32.234Z,53.40
2018-07-12T08:12:00.954Z,54.40
2018-07-12T08:14:29.612Z,54.30
2018-07-12T08:16:58.344Z,52.10
2018-07-12T08:19:27.111Z,52.30
2018-07-12T08:22:04.007Z,50.90
2018-07-12T08:24:32.729Z,53.50
2018-07-12T08:27:01.482Z,52.90
2018-07-12T08:29:30.540Z,51.00
2018-07-12T08:31:59.291Z,50.80
2018-07-12T08:34:28.088Z,52.80
2018-07-12T08:36:56.848Z,52.70
2018-07-12T08:39:25.520Z,53.40
2018-07-12T08:41:54.312Z,53.60
2018-07-12T08:44:22.994Z,52.40
2018-07-12T08:46:51.701Z,53.90
2018-07-12T08:49:20.388Z,51.90
2018-07-12T08:51:49.090Z,52.90
2018-07-12T08:54:17.797Z,51.10
2018-07-12T08:56:46.526Z,50.50
2018-07-12T08:59:15.244Z,46.60
2018-07-12T09:01:43.950Z,46.30
2018-07-12T09:04:12.609Z,49.10
2018-07-12T09:06:41.319Z,48.40
2018-07-12T09:09:10.034Z,48.40
2018-07-12T09:11:38.795Z,45.80
2018-07-12T09:14:07.465Z,46.40
2018-07-12T09:16:36.121Z,43.60
2018-07-12T09:19:04.846Z,45.90
2018-07-12T09:21:33.620Z,45.70
2018-07-12T09:24:02.373Z,44.40
2018-07-12T09:26:31.041Z,45.90
2018-07-12T09:28:59.725Z,44.80
2018-07-12T09:31:31.175Z,46.60
2018-07-12T09:33:59.895Z,47.60
2018-07-12T09:36:28.620Z,48.40
2018-07-12T09:38:57.272Z,50.80
2018-07-12T09:41:26.062Z,51.50
2018-07-12T09:43:54.979Z,54.30
2018-07-12T09:46:23.666Z,56.40
2018-07-12T09:48:53.112Z,56.20
2018-07-12T09:51:21.829Z,58.60
2018-07-12T09:53:50.500Z,57.30
2018-07-12T09:56:19.253Z,54.10
2018-07-12T09:58:47.870Z,55.30
2018-07-12T10:01:21.864Z,55.10
2018-07-12T10:03:52.278Z,56.10
2018-07-12T10:06:26.871Z,53.80
2018-07-12T10:09:00.115Z,52.10
2018-07-12T10:11:34.078Z,51.60
2018-07-12T10:14:08.013Z,52.80
2018-07-12T10:16:42.111Z,55.80
2018-07-12T10:19:10.822Z,56.40
2018-07-12T10:21:39.456Z,55.00
2018-07-12T10:24:14.609Z,53.60
2018-07-12T10:26:43.319Z,55.10
2018-07-12T10:29:11.994Z,55.80
2018-07-12T10:31:40.684Z,57.20
2018-07-12T10:34:09.330Z,55.80
2018-07-12T10:36:38.008Z,54.60
2018-07-12T10:39:08.515Z,52.80
2018-07-12T10:41:37.248Z,51.10
2018-07-12T10:44:06.130Z,51.20
2018-07-12T10:46:34.882Z,50.10
2018-07-12T10:49:03.574Z,51.10
2018-07-12T10:51:35.246Z,49.90
2018-07-12T10:54:03.964Z,49.50
2018-07-12T10:56:32.668Z,50.70
2018-07-12T10:59:01.510Z,51.10
2018-07-12T11:01:30.171Z,50.80
2018-07-12T11:03:58.907Z,49.40
2018-07-12T11:06:27.612Z,52.00
2018-07-12T11:08:56.322Z,50.30
2018-07-12T11:11:25.130Z,49.90
2018-07-12T11:13:54.620Z,51.50
2018-07-12T11:16:23.296Z,50.00
2018-07-12T11:18:52.098Z,51.60
2018-07-12T11:21:20.868Z,50.20
2018-07-12T11:23:49.567Z,50.90
2018-07-12T11:26:18.209Z,50.60
2018-07-12T11:28:47.086Z,50.90
2018-07-12T11:31:15.774Z,51.00
2018-07-12T11:33:46.012Z,50.30
2018-07-12T11:36:14.819Z,51.40
2018-07-12T11:38:44.591Z,49.00
2018-07-12T11:41:14.112Z,51.50
2018-07-12T11:43:42.941Z,51.00
2018-07-12T11:46:12.890Z,51.80
2018-07-12T11:48:42.516Z,54.10
2018-07-12T11:51:11.220Z,54.00
2018-07-12T11:53:39.949Z,52.70
2018-07-12T11:56:08.796Z,53.60
2018-07-12T11:58:37.587Z,53.40
2018-07-12T12:01:06.521Z,54.00
2018-07-12T12:03:35.226Z,54.40
2018-07-12T12:06:03.885Z,53.40
2018-07-12T12:08:32.505Z,53.60
2018-07-12T12:11:01.240Z,52.80
2018-07-12T12:13:29.897Z,54.70
2018-07-12T12:15:58.621Z,54.20
2018-07-12T12:18:27.263Z,53.80
2018-07-12T12:20:55.995Z,54.80
2018-07-12T12:23:24.690Z,52.80
2018-07-12T12:25:53.475Z,50.70
2018-07-12T12:28:22.147Z,52.60
2018-07-12T12:30:50.840Z,51.10
2018-07-12T12:33:19.522Z,50.90
2018-07-12T12:35:48.204Z,50.90
2018-07-12T12:38:17.047Z,52.70
2018-07-12T12:40:45.720Z,52.50
2018-07-12T12:43:14.336Z,50.40
2018-07-12T12:45:43.030Z,50.00
2018-07-12T12:48:11.726Z,51.10
2018-07-12T12:50:41.039Z,51.80
2018-07-12T12:53:09.681Z,50.70
2018-07-12T12:55:38.383Z,52.30
2018-07-12T12:58:07.099Z,52.90
2018-07-12T13:00:35.815Z,50.60
2018-07-12T13:03:04.475Z,51.50
2018-07-12T13:05:33.169Z,50.90
2018-07-12T13:08:01.879Z,50.40
2018-07-12T13:10:30.590Z,51.00
2018-07-12T13:12:59.256Z,50.30
2018-07-12T13:15:27.930Z,52.10
2018-07-12T13:17:56.668Z,49.00
2018-07-12T13:25:22.064Z,49.60
2018-07-12T13:27:50.771Z,48.10
2018-07-12T13:30:19.763Z,48.10
2018-07-12T13:32:48.450Z,47.30
2018-07-12T13:35:17.203Z,48.90
2018-07-12T13:37:45.859Z,47.70
2018-07-12T13:40:14.526Z,48.60
2018-07-12T13:42:43.251Z,49.10
2018-07-12T13:45:11.925Z,48.50
2018-07-12T13:47:40.586Z,47.80
2018-07-12T13:50:09.368Z,47.20
2018-07-12T13:52:38.076Z,46.20
2018-07-12T13:55:06.761Z,46.90
2018-07-12T13:57:35.512Z,45.70
2018-07-12T14:00:04.711Z,45.10
2018-07-12T14:02:33.565Z,46.40
2018-07-12T14:05:02.450Z,46.80
2018-07-12T14:07:31.175Z,46.20
2018-07-12T14:09:59.953Z,46.20
2018-07-12T14:12:28.711Z,45.40
2018-07-12T14:14:57.728Z,45.30
2018-07-12T14:17:26.650Z,44.60
2018-07-12T14:19:55.687Z,45.30
2018-07-12T14:22:24.599Z,46.40
2018-07-12T14:24:53.479Z,46.70
2018-07-12T14:27:22.342Z,45.70
2018-07-12T14:29:51.138Z,45.30
2018-07-12T14:32:19.947Z,44.60
2018-07-12T14:34:48.859Z,42.80
2018-07-12T14:37:17.607Z,43.00
2018-07-12T14:39:46.424Z,42.20
2018-07-12T14:42:15.241Z,42.90
2018-07-12T14:44:44.122Z,42.10
2018-07-12T14:47:12.917Z,42.00
2018-07-12T14:49:41.659Z,41.10
2018-07-12T14:52:10.522Z,40.00
2018-07-12T14:54:39.279Z,39.80
2018-07-12T14:57:08.080Z,41.60
2018-07-12T14:59:40.297Z,41.30
2018-07-12T15:02:09.513Z,40.10
2018-07-12T15:04:38.505Z,41.10
2018-07-12T15:07:07.483Z,41.10
2018-07-12T15:09:36.502Z,41.60
2018-07-12T15:12:05.609Z,39.40
2018-07-12T15:14:34.707Z,39.30
2018-07-12T15:17:03.964Z,40.10
2018-07-12T15:19:32.648Z,40.10
2018-07-12T15:22:01.321Z,38.60
2018-07-12T15:24:29.983Z,38.30
2018-07-12T15:26:58.650Z,39.30
2018-07-12T15:29:27.358Z,38.50
2018-07-12T15:31:56.019Z,40.10
2018-07-12T15:34:24.690Z,38.90
2018-07-12T15:36:53.481Z,37.10
2018-07-12T15:39:22.133Z,38.00
2018-07-12T15:41:50.842Z,38.30
2018-07-12T15:44:19.470Z,38.80
2018-07-12T15:46:48.200Z,39.60
2018-07-12T15:49:16.885Z,37.50
2018-07-12T15:51:46.290Z,36.80
2018-07-12T15:54:15.118Z,38.80
2018-07-12T15:56:43.994Z,39.30
2018-07-12T15:59:12.796Z,39.50
2018-07-12T16:01:41.533Z,40.00
2018-07-12T16:04:10.191Z,40.30
2018-07-12T16:06:38.977Z,41.30
2018-07-12T16:09:08.950Z,42.30
2018-07-12T16:11:37.666Z,41.80
2018-07-12T16:14:06.385Z,42.10
2018-07-12T16:16:35.087Z,42.40
2018-07-12T16:19:03.820Z,41.90
2018-07-12T16:21:32.627Z,42.70
2018-07-12T16:24:01.315Z,43.80
2018-07-12T16:26:29.959Z,44.70
2018-07-12T16:28:58.718Z,45.70
2018-07-12T16:31:27.482Z,45.50
2018-07-12T16:33:56.179Z,45.70
2018-07-12T16:36:24.848Z,46.30
2018-07-12T16:38:53.634Z,45.50
2018-07-12T16:41:22.306Z,46.70
2018-07-12T16:43:51.077Z,48.10
2018-07-12T16:46:19.760Z,48.80
2018-07-12T16:48:48.921Z,48.90
2018-07-12T16:51:17.663Z,49.90
2018-07-12T16:53:46.340Z,50.00
2018-07-12T16:56:15.052Z,50.00
2018-07-12T16:58:43.751Z,50.60
2018-07-12T17:01:12.460Z,51.30
2018-07-12T17:03:41.138Z,51.30
2018-07-12T17:06:09.881Z,50.80
2018-07-12T17:08:38.532Z,52.30
2018-07-12T17:11:08.110Z,51.00
2018-07-12T17:13:36.853Z,50.70
2018-07-12T17:16:05.544Z,51.00
2018-07-12T17:18:34.290Z,51.50
2018-07-12T17:21:03.101Z,53.00
2018-07-12T17:23:32.033Z,53.40
2018-07-12T17:26:00.845Z,55.10
2018-07-12T17:28:29.596Z,56.00
2018-07-12T17:30:58.331Z,56.70
2018-07-12T17:33:27.122Z,58.40
2018-07-12T17:35:55.958Z,57.70
2018-07-12T17:38:24.682Z,57.90
2018-07-12T17:40:53.506Z,58.40
2018-07-12T17:43:22.187Z,57.30
2018-07-12T17:45:50.926Z,58.20
2018-07-12T17:48:19.603Z,57.80
2018-07-12T17:50:48.289Z,58.70
2018-07-12T17:53:16.968Z,59.20
2018-07-12T17:55:45.633Z,59.20
2018-07-12T17:58:14.386Z,60.70
2018-07-12T18:00:43.066Z,61.70
2018-07-12T18:03:11.757Z,61.70
2018-07-12T18:05:40.451Z,62.40
2018-07-12T18:08:09.174Z,62.80
2018-07-12T18:10:37.843Z,63.90
2018-07-12T18:13:06.590Z,64.40
2018-07-12T18:15:35.232Z,64.30
2018-07-12T18:18:03.941Z,64.40
2018-07-12T18:20:32.636Z,64.50
2018-07-12T18:23:01.373Z,64.90
2018-07-12T18:25:30.087Z,66.30
2018-07-12T18:27:58.796Z,66.10
2018-07-12T18:30:27.425Z,67.40
2018-07-12T18:32:56.277Z,67.30
2018-07-12T18:35:24.960Z,68.10
2018-07-12T18:37:53.749Z,70.60
2018-07-12T18:40:22.430Z,73.50
2018-07-12T18:42:51.114Z,76.80
2018-07-12T18:45:19.796Z,79.30
2018-07-12T18:47:49.718Z,80.90
2018-07-12T18:52:46.756Z,80.60
2018-07-12T18:55:15.425Z,81.70
2018-07-12T18:57:44.072Z,79.20
2018-07-12T19:00:12.742Z,79.90
2018-07-12T19:02:41.573Z,81.30
2018-07-12T19:05:10.217Z,83.10
2018-07-12T19:07:39.070Z,82.40
2018-07-12T19:10:07.866Z,81.00
2018-07-12T19:12:36.514Z,80.60
2018-07-12T19:15:05.582Z,81.80
2018-07-12T19:17:34.291Z,84.00
2018-07-12T19:20:03.023Z,86.00
2018-07-12T19:22:32.207Z,86.50
2018-07-12T19:25:00.922Z,87.90
2018-07-12T19:27:29.643Z,88.80
2018-07-12T19:29:58.292Z,89.20
2018-07-12T19:32:27.171Z,89.30
2018-07-12T19:34:55.990Z,89.40
2018-07-12T19:37:24.651Z,90.20
2018-07-12T19:39:53.497Z,90.30
2018-07-12T19:42:22.186Z,90.60
2018-07-12T19:44:51.655Z,90.50
2018-07-12T19:47:20.710Z,90.10
2018-07-12T19:49:49.815Z,90.40
2018-07-12T19:52:18.788Z,90.40
2018-07-12T19:54:47.486Z,90.60
2018-07-12T19:57:16.404Z,91.00
2018-07-12T19:59:45.667Z,90.90
2018-07-12T20:02:14.566Z,91.20
2018-07-12T20:04:43.828Z,91.40
2018-07-12T20:07:12.507Z,91.20
2018-07-12T20:09:41.320Z,91.60
2018-07-12T20:12:10.336Z,91.70
2018-07-12T20:14:39.564Z,92.00
2018-07-12T20:17:08.664Z,92.00
2018-07-12T20:19:37.781Z,91.90
2018-07-12T20:22:06.689Z,91.90
2018-07-12T20:24:35.711Z,91.70
2018-07-12T20:27:04.485Z,91.80
2018-07-12T20:29:34.910Z,91.60
2018-07-12T20:32:04.012Z,91.50
2018-07-12T20:34:32.906Z,91.50
2018-07-12T20:37:01.561Z,91.50
2018-07-12T20:41:58.651Z,91.60
2018-07-12T20:44:27.399Z,91.70
2018-07-12T20:46:56.185Z,91.70
2018-07-12T20:49:25.032Z,91.80
2018-07-12T20:51:53.840Z,92.00
2018-07-12T20:54:22.719Z,92.10
2018-07-12T20:56:51.528Z,92.20
2018-07-12T20:59:20.272Z,92.40
2018-07-12T21:01:49.237Z,92.50
2018-07-12T21:04:18.008Z,92.30
2018-07-12T21:06:46.989Z,92.50
2018-07-12T21:09:15.772Z,92.30
2018-07-12T21:11:44.761Z,92.80
2018-07-12T21:14:13.451Z,92.50
2018-07-12T21:16:42.130Z,92.60
2018-07-12T21:19:10.843Z,92.60
2018-07-12T21:21:39.809Z,92.50
2018-07-12T21:24:08.609Z,92.50
2018-07-12T21:26:38.185Z,92.70
2018-07-12T21:31:36.092Z,93.00
2018-07-12T21:34:05.233Z,93.20
2018-07-12T21:36:33.936Z,93.10
2018-07-12T21:39:02.861Z,93.10
2018-07-12T21:41:31.570Z,93.20
2018-07-12T21:44:00.207Z,93.20
2018-07-12T21:46:28.913Z,93.00
2018-07-12T21:48:57.610Z,93.10
2018-07-12T21:51:26.366Z,92.80
2018-07-12T21:53:55.124Z,92.80
2018-07-12T21:56:23.847Z,92.80
2018-07-12T21:58:52.566Z,92.80
2018-07-12T22:01:21.256Z,93.20
2018-07-12T22:03:50.006Z,93.30
2018-07-12T22:06:26.280Z,93.20
2018-07-12T22:08:55.042Z,93.10
2018-07-12T22:11:23.734Z,93.10
2018-07-12T22:13:52.471Z,93.10
2018-07-12T22:16:21.168Z,93.20
2018-07-12T22:18:49.881Z,93.30
2018-07-12T22:21:18.686Z,93.60
2018-07-12T22:23:47.356Z,93.80
2018-07-12T22:26:16.105Z,93.80
2018-07-12T22:28:44.759Z,93.80
2018-07-12T22:33:41.742Z,93.90
2018-07-12T22:36:10.478Z,93.70
2018-07-12T22:38:39.154Z,93.60
2018-07-12T22:41:07.865Z,93.70
2018-07-12T22:43:36.568Z,93.50
2018-07-12T22:46:05.312Z,93.60
2018-07-12T22:48:34.083Z,93.80
2018-07-12T22:51:02.706Z,93.70
2018-07-12T22:53:31.366Z,93.60
2018-07-12T22:56:00.103Z,93.80
2018-07-12T22:58:28.760Z,93.80
2018-07-12T23:00:57.462Z,93.70
2018-07-12T23:03:26.129Z,93.90
2018-07-12T23:05:54.865Z,93.80
2018-07-12T23:08:23.556Z,93.60
2018-07-12T23:10:52.278Z,93.50
2018-07-12T23:13:20.953Z,93.50
2018-07-12T23:15:49.676Z,93.40
2018-07-12T23:18:18.387Z,93.40
2018-07-12T23:20:47.189Z,93.50
2018-07-12T23:23:15.918Z,93.50
2018-07-12T23:25:44.568Z,93.60
2018-07-12T23:28:13.279Z,93.70
2018-07-12T23:30:42.619Z,93.60
2018-07-12T23:33:11.432Z,93.80
2018-07-12T23:35:40.087Z,93.80
2018-07-12T23:38:08.815Z,93.80
2018-07-12T23:40:37.593Z,93.90
2018-07-12T23:43:06.389Z,94.00
2018-07-12T23:45:35.102Z,94.00
2018-07-12T23:48:03.848Z,93.80
2018-07-12T23:50:32.542Z,93.70
2018-07-12T23:53:01.234Z,93.70
2018-07-12T23:55:29.947Z,93.90
2018-07-12T23:57:58.637Z,93.80
